Time;durP1;ratioP1;P1;durP2;ratioP2;P2;SDS_P1;SDS_P2;PMS_P1;PMS_P2;Temp;Humidity;BMP_temperature;BMP_pressure;BME280_temperature;BME280_humidity;BME280_pressure;Samples;Min_cycle;Max_cycle;Signal;HPM_P1;HPM_P2
2023/04/09 00:02:16;;;;;;;75.38;44.15;;;8.80;99.90;;;;;;5073245;28;20048;-63
2023/04/09 00:04:43;;;;;;;86.45;42.67;;;8.70;99.90;;;;;;5073871;28;20094;-63
2023/04/09 00:07:11;;;;;;;78.47;42.83;;;8.70;99.90;;;;;;5072335;28;20044;-62
2023/04/09 00:09:38;;;;;;;77.32;41.38;;;8.70;99.90;;;;;;5071897;28;20041;-62
2023/04/09 00:12:05;;;;;;;70.22;40.45;;;8.70;99.90;;;;;;5073618;28;20512;-63
2023/04/09 00:14:32;;;;;;;69.15;39.45;;;8.60;99.90;;;;;;5072356;28;20056;-62
2023/04/09 00:16:59;;;;;;;64.47;37.42;;;8.70;99.90;;;;;;5072900;28;20101;-63
2023/04/09 00:19:25;;;;;;;66.65;35.88;;;8.60;99.90;;;;;;5072519;28;20442;-63
2023/04/09 00:21:52;;;;;;;61.63;34.70;;;8.60;99.90;;;;;;5073484;28;20040;-63
2023/04/09 00:24:20;;;;;;;63.53;35.78;;;8.50;99.90;;;;;;5073066;28;20048;-62
2023/04/09 00:26:48;;;;;;;61.65;36.35;;;8.50;99.90;;;;;;5072232;28;20105;-63
2023/04/09 00:29:15;;;;;;;62.90;36.63;;;8.50;99.90;;;;;;5071915;28;20094;-63
2023/04/09 00:31:41;;;;;;;68.25;36.25;;;8.50;99.90;;;;;;5072532;28;20557;-62
2023/04/09 00:34:08;;;;;;;63.60;35.05;;;8.50;99.90;;;;;;5073671;28;20056;-63
2023/04/09 00:36:35;;;;;;;57.95;34.92;;;8.50;99.90;;;;;;5071049;28;20390;-62
2023/04/09 00:39:02;;;;;;;66.47;36.33;;;8.50;99.90;;;;;;5073007;28;20493;-63
2023/04/09 00:41:30;;;;;;;53.42;32.45;;;8.40;99.90;;;;;;5073218;28;20094;-61
2023/04/09 00:43:57;;;;;;;61.22;33.20;;;8.40;99.90;;;;;;5071600;28;20466;-62
2023/04/09 00:46:24;;;;;;;63.40;34.42;;;8.40;99.90;;;;;;5073229;28;20438;-62
2023/04/09 00:48:51;;;;;;;56.70;33.80;;;8.40;99.90;;;;;;5072780;28;20393;-62
2023/04/09 00:51:18;;;;;;;65.28;34.58;;;8.40;99.90;;;;;;5072218;28;20048;-63
2023/04/09 00:53:45;;;;;;;62.53;33.70;;;8.40;99.90;;;;;;5072777;28;20559;-63
2023/04/09 00:56:15;;;;;;;55.63;31.38;;;8.40;99.90;;;;;;5072914;28;20102;-63
2023/04/09 00:58:44;;;;;;;58.40;31.93;;;8.40;99.90;;;;;;5072520;28;20048;-63
2023/04/09 01:01:11;;;;;;;61.72;32.13;;;8.40;99.90;;;;;;5072667;28;20098;-63
2023/04/09 01:03:38;;;;;;;53.08;29.08;;;8.30;99.90;;;;;;5071565;28;20144;-63
2023/04/09 01:06:10;;;;;;;48.47;27.75;;;8.30;99.90;;;;;;5072159;28;20041;-62
2023/04/09 01:08:48;;;;;;;48.22;27.73;;;8.30;99.90;;;;;;5072690;28;20106;-62
2023/04/09 01:11:21;;;;;;;47.40;26.70;;;8.20;99.90;;;;;;5071488;28;20101;-62
2023/04/09 01:14:04;;;;;;;48.60;26.88;;;8.30;99.90;;;;;;5070860;28;20063;-63
2023/04/09 01:16:34;;;;;;;42.20;25.33;;;8.20;99.90;;;;;;5071204;28;20043;-63
2023/04/09 01:19:09;;;;;;;45.42;26.40;;;8.30;99.90;;;;;;5071731;28;20555;-63
2023/04/09 01:21:40;;;;;;;50.45;26.27;;;8.30;99.90;;;;;;5068960;28;20078;-63
2023/04/09 01:24:17;;;;;;;;;;;8.30;99.90;;;;;;5071872;28;20057;-63
2023/04/09 01:26:58;;;;;;;42.35;24.23;;;8.30;99.90;;;;;;5070677;28;19920;-63
2023/04/09 01:29:30;;;;;;;49.45;26.38;;;8.30;99.90;;;;;;5069283;28;20510;-64
2023/04/09 01:31:59;;;;;;;39.35;24.40;;;8.30;99.90;;;;;;5072302;28;20045;-63
2023/04/09 01:34:28;;;;;;;45.67;25.40;;;8.30;99.90;;;;;;5071628;28;20463;-63
2023/04/09 01:36:58;;;;;;;43.67;24.30;;;8.20;99.90;;;;;;5070995;28;20098;-62
2023/04/09 01:39:26;;;;;;;46.75;24.13;;;8.20;99.90;;;;;;5072352;28;20045;-63
2023/04/09 01:41:54;;;;;;;46.55;25.48;;;8.20;99.90;;;;;;5071536;28;20052;-63
2023/04/09 01:44:21;;;;;;;42.83;23.65;;;8.20;99.90;;;;;;5072389;28;20044;-63
2023/04/09 01:46:49;;;;;;;45.28;24.02;;;8.20;99.90;;;;;;5070388;28;20442;-63
2023/04/09 01:49:18;;;;;;;40.25;24.85;;;8.20;99.90;;;;;;5071766;28;20091;-63
2023/04/09 01:51:45;;;;;;;39.58;23.17;;;8.20;99.90;;;;;;5071063;28;20454;-64
2023/04/09 01:54:11;;;;;;;36.67;22.45;;;8.20;99.90;;;;;;5070361;28;20048;-63
2023/04/09 01:56:42;;;;;;;39.78;21.30;;;8.20;99.90;;;;;;5072019;28;20106;-63
2023/04/09 01:59:09;;;;;;;;;;;8.30;99.90;;;;;;5068995;28;20117;-63
2023/04/09 02:01:40;;;;;;;35.25;20.90;;;8.20;99.90;;;;;;5071343;28;19967;-64
2023/04/09 02:04:16;;;;;;;39.78;20.48;;;8.30;99.90;;;;;;5070570;28;20064;-62
2023/04/09 02:06:50;;;;;;;33.72;20.05;;;8.20;99.90;;;;;;5072273;28;20048;-63
2023/04/09 02:09:20;;;;;;;35.45;20.30;;;8.20;99.90;;;;;;5069906;28;20056;-63
2023/04/09 02:11:49;;;;;;;35.28;20.55;;;8.20;99.90;;;;;;5070903;28;20450;-63
2023/04/09 02:14:16;;;;;;;36.05;20.23;;;8.20;99.90;;;;;;5071915;28;20086;-64
2023/04/09 02:16:43;;;;;;;35.13;21.08;;;8.20;99.90;;;;;;5070151;28;20041;-63
2023/04/09 02:19:11;;;;;;;35.95;20.60;;;8.20;99.90;;;;;;5071540;28;20090;-62
2023/04/09 02:21:38;;;;;;;34.50;19.13;;;8.20;99.90;;;;;;5070666;28;20565;-62
2023/04/09 02:24:05;;;;;;;34.05;20.33;;;8.30;99.90;;;;;;5070099;28;20084;-62
2023/04/09 02:26:32;;;;;;;38.67;19.95;;;8.30;99.90;;;;;;5071778;28;20037;-63
2023/04/09 02:28:59;;;;;;;33.45;19.77;;;8.20;99.90;;;;;;5070885;28;20052;-63
2023/04/09 02:31:26;;;;;;;35.10;21.17;;;8.20;99.90;;;;;;5071737;28;20057;-62
2023/04/09 02:33:53;;;;;;;37.08;20.95;;;8.20;99.90;;;;;;5070422;28;20075;-63
2023/04/09 02:36:21;;;;;;;34.95;20.95;;;8.20;99.90;;;;;;5070939;28;20502;-62
2023/04/09 02:38:48;;;;;;;34.67;21.65;;;8.20;99.90;;;;;;5071635;28;20045;-63
2023/04/09 02:41:15;;;;;;;34.70;19.02;;;8.20;99.90;;;;;;5071260;28;20040;-63
2023/04/09 02:43:42;;;;;;;35.08;19.90;;;8.20;99.90;;;;;;5073702;28;20044;-63
2023/04/09 02:46:09;;;;;;;34.92;20.20;;;8.20;99.90;;;;;;5074403;28;20052;-63
2023/04/09 02:48:35;;;;;;;31.58;19.80;;;8.20;99.90;;;;;;5074030;28;20098;-63
2023/04/09 02:51:05;;;;;;;31.58;19.75;;;8.20;99.90;;;;;;5073739;28;20049;-63
2023/04/09 02:53:33;;;;;;;34.38;21.48;;;8.20;99.90;;;;;;5075281;28;20459;-62
2023/04/09 02:56:00;;;;;;;30.00;18.52;;;8.10;99.90;;;;;;5073950;28;20044;-63
2023/04/09 02:58:27;;;;;;;32.08;18.85;;;8.10;99.90;;;;;;5073465;28;20447;-63
2023/04/09 03:00:53;;;;;;;29.02;19.35;;;8.20;99.90;;;;;;5073956;28;20048;-63
2023/04/09 03:03:20;;;;;;;32.15;19.05;;;8.10;99.90;;;;;;5075051;28;20496;-63
2023/04/09 03:05:47;;;;;;;36.83;21.17;;;8.10;99.90;;;;;;5074159;28;20485;-63
2023/04/09 03:08:14;;;;;;;32.90;19.30;;;8.10;99.90;;;;;;5073475;28;20102;-63
2023/04/09 03:10:43;;;;;;;33.88;19.77;;;8.20;99.90;;;;;;5073849;28;20059;-63
2023/04/09 03:13:09;;;;;;;33.15;19.27;;;8.00;99.90;;;;;;5074105;28;20084;-63
2023/04/09 03:15:36;;;;;;;33.17;19.50;;;8.00;99.90;;;;;;5073979;28;20052;-63
2023/04/09 03:18:03;;;;;;;36.33;20.55;;;8.00;99.90;;;;;;5073558;28;21031;-63
2023/04/09 03:20:30;;;;;;;32.25;19.33;;;8.00;99.90;;;;;;5074358;28;20098;-63
2023/04/09 03:22:57;;;;;;;32.63;18.38;;;8.00;99.90;;;;;;5073559;28;20048;-62
2023/04/09 03:25:24;;;;;;;34.75;20.30;;;8.00;99.90;;;;;;5073117;28;20056;-63
2023/04/09 03:27:52;;;;;;;32.90;20.67;;;8.00;99.90;;;;;;5073710;28;20447;-63
2023/04/09 03:30:19;;;;;;;32.75;20.02;;;8.00;99.90;;;;;;5074404;28;20576;-63
2023/04/09 03:32:46;;;;;;;32.92;20.52;;;7.90;99.90;;;;;;5073045;28;20106;-62
2023/04/09 03:35:12;;;;;;;36.22;20.25;;;7.90;99.90;;;;;;5074579;28;20071;-63
2023/04/09 03:37:39;;;;;;;29.95;18.52;;;7.90;99.90;;;;;;5073177;28;20048;-63
2023/04/09 03:40:07;;;;;;;33.15;20.23;;;7.90;99.90;;;;;;5073374;28;20131;-63
2023/04/09 03:42:36;;;;;;;36.58;19.90;;;7.90;99.90;;;;;;5073282;28;20048;-63
2023/04/09 03:45:05;;;;;;;35.10;21.67;;;7.80;99.90;;;;;;5073324;28;20492;-63
2023/04/09 03:47:33;;;;;;;35.22;21.50;;;7.80;99.90;;;;;;5070431;28;20400;-63
2023/04/09 03:50:00;;;;;;;36.10;20.58;;;7.80;99.90;;;;;;5072900;28;20450;-62
2023/04/09 03:52:27;;;;;;;34.45;21.08;;;7.80;99.90;;;;;;5073003;28;20056;-62
2023/04/09 03:54:54;;;;;;;33.22;20.55;;;7.80;99.90;;;;;;5073715;28;20048;-63
2023/04/09 03:57:21;;;;;;;35.22;21.98;;;7.80;99.90;;;;;;5074071;28;20040;-62
2023/04/09 03:59:48;;;;;;;34.65;20.58;;;7.80;99.90;;;;;;5073627;28;20554;-63
2023/04/09 04:02:16;;;;;;;38.92;21.80;;;7.80;99.90;;;;;;5072412;28;20079;-62
2023/04/09 04:04:43;;;;;;;42.05;22.73;;;7.80;99.90;;;;;;5072346;28;20496;-62
2023/04/09 04:07:09;;;;;;;42.10;22.77;;;7.80;99.90;;;;;;5072869;28;20500;-63
2023/04/09 04:09:36;;;;;;;36.33;21.92;;;7.80;99.90;;;;;;5070880;28;20551;-63
2023/04/09 04:12:04;;;;;;;37.78;22.90;;;7.80;99.90;;;;;;5072662;28;20094;-63
2023/04/09 04:14:30;;;;;;;45.35;24.08;;;7.70;99.90;;;;;;5072259;28;20052;-62
2023/04/09 04:16:57;;;;;;;41.53;23.83;;;7.70;99.90;;;;;;5074099;28;20044;-62
2023/04/09 04:19:26;;;;;;;42.28;23.23;;;7.70;99.90;;;;;;5072115;28;20052;-64
2023/04/09 04:21:52;;;;;;;38.30;23.45;;;7.80;99.90;;;;;;5073086;28;20420;-62
2023/04/09 04:24:19;;;;;;;38.70;21.98;;;7.80;99.90;;;;;;5072446;28;20436;-62
2023/04/09 04:26:46;;;;;;;39.35;23.45;;;7.80;99.90;;;;;;5072474;28;20052;-63
2023/04/09 04:29:13;;;;;;;40.67;23.08;;;7.80;99.90;;;;;;5071558;28;20056;-64
2023/04/09 04:31:40;;;;;;;39.13;23.10;;;7.80;99.90;;;;;;5073414;28;20072;-65
2023/04/09 04:34:07;;;;;;;39.72;23.02;;;7.80;99.90;;;;;;5072276;28;20060;-64
2023/04/09 04:36:36;;;;;;;39.58;22.92;;;7.80;99.90;;;;;;5071541;28;20048;-64
2023/04/09 04:39:03;;;;;;;37.42;21.60;;;7.80;99.90;;;;;;5073316;28;20049;-65
2023/04/09 04:41:30;;;;;;;39.67;21.73;;;7.80;99.90;;;;;;5072167;28;20428;-63
2023/04/09 04:43:57;;;;;;;38.70;23.02;;;7.90;99.90;;;;;;5071616;28;20052;-64
2023/04/09 04:46:24;;;;;;;34.53;21.50;;;7.90;99.90;;;;;;5073158;28;20044;-64
2023/04/09 04:48:51;;;;;;;36.22;22.45;;;7.90;99.90;;;;;;5072989;28;20051;-62
2023/04/09 04:51:18;;;;;;;36.22;22.27;;;7.90;99.90;;;;;;5071103;28;20480;-65
2023/04/09 04:53:46;;;;;;;35.83;22.27;;;7.90;99.90;;;;;;5071981;28;20380;-64
2023/04/09 04:56:14;;;;;;;35.13;21.02;;;7.90;99.90;;;;;;5070817;28;20044;-63
2023/04/09 04:58:41;;;;;;;38.80;22.55;;;7.90;99.90;;;;;;5070772;28;20048;-63
2023/04/09 05:01:08;;;;;;;44.10;24.05;;;7.90;99.90;;;;;;5072624;28;20155;-64
2023/04/09 05:03:35;;;;;;;39.22;23.50;;;7.90;99.90;;;;;;5072138;28;20044;-63
2023/04/09 05:06:02;;;;;;;36.78;22.58;;;7.90;99.90;;;;;;5071905;28;20106;-61
2023/04/09 05:08:29;;;;;;;36.70;21.77;;;8.00;99.90;;;;;;5072593;28;20044;-63
2023/04/09 05:10:57;;;;;;;39.05;22.10;;;7.90;99.90;;;;;;5070794;28;20052;-62
2023/04/09 05:13:24;;;;;;;40.10;22.70;;;8.00;99.90;;;;;;5072594;28;20044;-63
2023/04/09 05:15:51;;;;;;;41.70;24.42;;;8.00;99.90;;;;;;5071448;28;20400;-62
2023/04/09 05:18:18;;;;;;;44.42;23.70;;;8.00;99.90;;;;;;5070539;28;20476;-63
2023/04/09 05:20:44;;;;;;;40.05;24.80;;;8.00;99.90;;;;;;5072406;28;20093;-62
2023/04/09 05:23:11;;;;;;;38.85;23.88;;;8.00;99.90;;;;;;5071421;28;20052;-63
2023/04/09 05:25:38;;;;;;;45.45;23.30;;;8.00;99.90;;;;;;5068681;28;20076;-63
2023/04/09 05:28:07;;;;;;;39.85;23.95;;;8.00;99.90;;;;;;5072093;28;20480;-63
2023/04/09 05:30:33;;;;;;;38.25;23.10;;;8.00;99.90;;;;;;5072347;28;20040;-63
2023/04/09 05:33:00;;;;;;;44.13;25.17;;;8.10;99.90;;;;;;5071898;28;20087;-63
2023/04/09 05:35:27;;;;;;;38.40;24.25;;;8.00;99.90;;;;;;5071236;28;20109;-62
2023/04/09 05:37:54;;;;;;;40.95;21.95;;;8.00;99.90;;;;;;5072169;28;20098;-62
2023/04/09 05:40:21;;;;;;;41.97;22.77;;;8.00;99.90;;;;;;5070456;28;20041;-63
2023/04/09 05:42:48;;;;;;;39.38;23.90;;;8.10;99.90;;;;;;5071086;28;20048;-63
2023/04/09 05:45:16;;;;;;;39.00;24.60;;;8.00;99.90;;;;;;5072091;28;20480;-61
2023/04/09 05:47:43;;;;;;;40.05;23.63;;;8.10;99.90;;;;;;5069919;28;20094;-63
2023/04/09 05:50:10;;;;;;;35.83;22.40;;;8.00;99.90;;;;;;5071817;28;20424;-63
2023/04/09 05:52:37;;;;;;;38.42;23.17;;;8.10;99.90;;;;;;5072130;28;20048;-63
2023/04/09 05:55:05;;;;;;;35.95;21.73;;;8.10;99.90;;;;;;5070254;28;20453;-63
2023/04/09 05:57:32;;;;;;;37.55;22.77;;;8.10;99.90;;;;;;5072263;28;20076;-63
2023/04/09 05:59:59;;;;;;;32.33;20.02;;;8.10;99.90;;;;;;5071339;28;20098;-63
2023/04/09 06:02:28;;;;;;;29.23;16.90;;;8.20;99.90;;;;;;5072057;28;20051;-61
2023/04/09 06:04:55;;;;;;;27.42;16.73;;;8.10;99.90;;;;;;5070522;28;20098;-62
2023/04/09 06:07:22;;;;;;;33.53;17.70;;;8.10;99.90;;;;;;5071252;28;20052;-62
2023/04/09 06:09:48;;;;;;;28.00;17.45;;;8.10;99.90;;;;;;5071599;28;20076;-64
2023/04/09 06:12:16;;;;;;;26.92;16.13;;;8.10;99.90;;;;;;5070549;28;20044;-63
2023/04/09 06:14:43;;;;;;;27.17;17.60;;;8.20;99.90;;;;;;5071230;28;20124;-63
2023/04/09 06:17:10;;;;;;;27.02;17.05;;;8.20;99.90;;;;;;5073125;28;20468;-62
2023/04/09 06:19:38;;;;;;;26.75;16.20;;;9.10;99.90;;;;;;5076090;28;20094;-62
2023/04/09 06:22:05;;;;;;;26.15;17.33;;;8.20;99.90;;;;;;5072355;28;20052;-63
2023/04/09 06:24:32;;;;;;;24.25;16.35;;;8.20;99.90;;;;;;5075964;28;20051;-62
2023/04/09 06:26:59;;;;;;;24.85;15.77;;;8.10;99.90;;;;;;5075568;28;20044;-62
2023/04/09 06:29:26;;;;;;;26.27;16.48;;;8.20;99.90;;;;;;5065403;28;20203;-62
2023/04/09 06:31:53;;;;;;;28.70;17.00;;;8.10;99.90;;;;;;5071444;28;20044;-63
2023/04/09 06:34:20;;;;;;;27.80;18.05;;;8.10;99.90;;;;;;5073269;28;20553;-62
2023/04/09 06:36:48;;;;;;;25.17;16.80;;;8.20;99.90;;;;;;5071315;28;20049;-63
2023/04/09 06:39:15;;;;;;;31.20;18.13;;;8.10;99.90;;;;;;5074321;28;20056;-63
2023/04/09 06:41:41;;;;;;;29.25;17.00;;;8.10;99.90;;;;;;5072501;28;20044;-62
2023/04/09 06:44:08;;;;;;;27.00;17.13;;;8.10;99.90;;;;;;5074002;28;20044;-67
2023/04/09 06:46:35;;;;;;;28.63;17.55;;;8.10;99.90;;;;;;5071776;28;20098;-64
2023/04/09 06:49:02;;;;;;;27.20;17.52;;;8.10;99.90;;;;;;5072576;28;20493;-63
2023/04/09 06:51:29;;;;;;;32.92;19.70;;;8.20;99.90;;;;;;5071010;28;20064;-62
2023/04/09 06:53:57;;;;;;;30.88;19.30;;;8.40;99.90;;;;;;5074451;28;20048;-62
2023/04/09 06:56:24;;;;;;;31.33;19.55;;;8.30;99.90;;;;;;5065953;28;20060;-63
2023/04/09 06:58:51;;;;;;;27.63;17.58;;;8.30;99.90;;;;;;5073469;28;20048;-63
2023/04/09 07:01:18;;;;;;;34.28;19.40;;;8.40;99.90;;;;;;5069622;28;20059;-62
2023/04/09 07:03:45;;;;;;;29.65;18.42;;;8.40;99.90;;;;;;5071620;28;20076;-65
2023/04/09 07:06:12;;;;;;;31.17;18.33;;;8.40;99.90;;;;;;5072121;28;20458;-63
2023/04/09 07:08:38;;;;;;;28.67;19.77;;;8.50;99.90;;;;;;5073931;28;20089;-62
2023/04/09 07:11:07;;;;;;;30.20;18.27;;;8.50;99.90;;;;;;5072392;28;20045;-63
2023/04/09 07:13:34;;;;;;;33.67;19.42;;;8.50;99.90;;;;;;5071709;28;20055;-62
2023/04/09 07:16:01;;;;;;;29.60;19.10;;;8.50;99.90;;;;;;5073224;28;20097;-62
2023/04/09 07:18:27;;;;;;;29.90;19.38;;;8.50;99.90;;;;;;5070141;28;20049;-62
2023/04/09 07:20:54;;;;;;;32.70;19.65;;;8.50;99.90;;;;;;5073349;28;20495;-62
2023/04/09 07:23:21;;;;;;;28.77;18.48;;;8.60;99.90;;;;;;5069712;28;20052;-63
2023/04/09 07:25:48;;;;;;;33.92;19.38;;;8.60;99.90;;;;;;5072172;28;20463;-63
2023/04/09 07:28:16;;;;;;;32.63;19.85;;;8.70;99.90;;;;;;5068821;28;20052;-62
2023/04/09 07:30:45;;;;;;;34.10;19.77;;;8.70;99.90;;;;;;5071133;28;20041;-63
2023/04/09 07:33:12;;;;;;;33.97;20.38;;;8.80;99.90;;;;;;5067746;28;20168;-63
2023/04/09 07:35:38;;;;;;;29.85;18.65;;;8.80;99.90;;;;;;5071764;28;20492;-63
2023/04/09 07:38:06;;;;;;;31.75;19.52;;;8.90;99.90;;;;;;5068881;28;20094;-64
2023/04/09 07:40:35;;;;;;;30.67;19.55;;;9.00;99.90;;;;;;5073126;28;20399;-62
2023/04/09 07:43:02;;;;;;;29.40;18.00;;;9.20;99.90;;;;;;5070749;28;20052;-62
2023/04/09 07:45:30;;;;;;;32.92;19.33;;;9.50;99.90;;;;;;5073152;28;20056;-63
2023/04/09 07:47:57;;;;;;;36.38;20.67;;;10.20;99.90;;;;;;5069125;28;20057;-63
2023/04/09 07:50:24;;;;;;;33.22;20.25;;;10.80;99.90;;;;;;5073050;28;20106;-62
2023/04/09 07:52:51;;;;;;;34.42;21.00;;;10.90;99.90;;;;;;5069830;28;20060;-63
2023/04/09 07:55:19;;;;;;;33.83;20.23;;;11.10;99.90;;;;;;5073184;28;20470;-63
2023/04/09 07:57:47;;;;;;;32.25;20.70;;;11.00;99.90;;;;;;5072373;28;20044;-63
2023/04/09 08:00:14;;;;;;;34.63;20.90;;;10.90;99.90;;;;;;5069333;28;20121;-62
2023/04/09 08:02:43;;;;;;;33.58;20.67;;;10.80;99.90;;;;;;5100046;28;20060;-62
2023/04/09 08:05:10;;;;;;;34.05;21.23;;;10.60;99.90;;;;;;5069476;28;20056;-62
2023/04/09 08:07:37;;;;;;;33.97;21.77;;;10.50;99.90;;;;;;5071483;28;20052;-63
2023/04/09 08:10:04;;;;;;;34.17;21.17;;;10.40;99.90;;;;;;5069926;28;20090;-62
2023/04/09 08:12:31;;;;;;;34.05;20.50;;;10.20;99.90;;;;;;5071318;28;20048;-63
2023/04/09 08:14:58;;;;;;;36.72;21.90;;;10.00;99.90;;;;;;5071475;28;20049;-62
2023/04/09 08:17:26;;;;;;;33.65;20.48;;;10.00;99.90;;;;;;5072465;28;20078;-62
2023/04/09 08:19:54;;;;;;;32.50;20.08;;;10.00;99.90;;;;;;5068370;28;20055;-64
2023/04/09 08:22:21;;;;;;;33.67;20.90;;;10.00;99.90;;;;;;5070173;28;20056;-63
2023/04/09 08:24:51;;;;;;;34.85;20.90;;;9.80;99.90;;;;;;5070377;28;20531;-63
2023/04/09 08:27:18;;;;;;;30.15;19.40;;;9.80;99.90;;;;;;5072281;28;20159;-62
2023/04/09 08:29:45;;;;;;;33.40;19.95;;;9.90;99.90;;;;;;5069074;28;20102;-64
2023/04/09 08:32:12;;;;;;;35.13;20.92;;;9.80;99.90;;;;;;5072625;28;20455;-62
2023/04/09 08:34:38;;;;;;;32.83;20.40;;;9.80;99.90;;;;;;5069066;28;20060;-63
2023/04/09 08:37:07;;;;;;;34.95;21.40;;;9.80;99.90;;;;;;5070883;28;20105;-65
2023/04/09 08:39:35;;;;;;;35.17;21.38;;;10.00;99.90;;;;;;5068110;28;20037;-63
2023/04/09 08:42:02;;;;;;;35.35;20.08;;;9.90;99.90;;;;;;5071545;28;20502;-62
2023/04/09 08:44:29;;;;;;;35.50;21.70;;;9.90;99.90;;;;;;5070395;28;20060;-63
2023/04/09 08:46:57;;;;;;;33.80;20.23;;;9.80;99.90;;;;;;5070514;28;20060;-63
2023/04/09 08:49:24;;;;;;;33.33;20.73;;;9.90;99.90;;;;;;5071255;28;20055;-63
2023/04/09 08:51:51;;;;;;;33.45;20.67;;;10.00;99.90;;;;;;5069622;28;20204;-63
2023/04/09 08:54:19;;;;;;;28.65;19.77;;;10.00;99.90;;;;;;5070017;28;20573;-63
2023/04/09 08:56:46;;;;;;;33.72;20.75;;;10.10;99.90;;;;;;5069921;28;20161;-64
2023/04/09 08:59:17;;;;;;;32.05;20.10;;;10.20;99.90;;;;;;5071863;28;20056;-63
2023/04/09 09:01:46;;;;;;;33.45;20.70;;;10.30;99.90;;;;;;5069359;28;20052;-63
2023/04/09 09:04:13;;;;;;;29.95;19.70;;;10.40;99.90;;;;;;5064429;28;20380;-64
2023/04/09 09:06:41;;;;;;;29.27;19.77;;;10.40;99.90;;;;;;5069206;28;20056;-63
2023/04/09 09:09:10;;;;;;;30.20;19.55;;;10.40;99.90;;;;;;5072053;28;20044;-64
2023/04/09 09:11:40;;;;;;;31.15;19.40;;;10.30;99.90;;;;;;5069786;28;20048;-64
2023/04/09 09:14:08;;;;;;;30.77;19.70;;;10.40;99.90;;;;;;5071877;28;20090;-62
2023/04/09 09:16:41;;;;;;;29.92;18.35;;;10.40;99.90;;;;;;5067276;28;20660;-63
2023/04/09 09:19:08;;;;;;;30.33;18.60;;;10.40;99.90;;;;;;5071244;28;20142;-63
2023/04/09 09:21:37;;;;;;;34.38;19.58;;;10.50;99.90;;;;;;5070144;28;20045;-65
2023/04/09 09:24:17;;;;;;;27.02;18.40;;;10.60;99.90;;;;;;5069907;28;20274;-64
2023/04/09 09:26:45;;;;;;;30.48;19.30;;;10.80;99.90;;;;;;5069124;28;20048;-63
2023/04/09 09:29:12;;;;;;;31.70;18.48;;;10.90;99.90;;;;;;5067356;28;20109;-62
2023/04/09 09:31:47;;;;;;;30.83;18.63;;;11.00;99.90;;;;;;5070129;28;20045;-62
2023/04/09 09:34:15;;;;;;;30.10;18.85;;;11.10;99.90;;;;;;5068015;28;20496;-63
2023/04/09 09:36:42;;;;;;;29.88;18.60;;;11.10;99.90;;;;;;5072016;28;20044;-63
2023/04/09 09:39:11;;;;;;;30.73;19.05;;;11.30;99.90;;;;;;5065000;28;20076;-64
2023/04/09 09:41:38;;;;;;;31.98;19.33;;;11.40;99.90;;;;;;5070703;28;20052;-63
2023/04/09 09:44:07;;;;;;;28.23;18.83;;;11.40;99.90;;;;;;5064330;28;20419;-63
2023/04/09 09:46:36;;;;;;;30.55;19.45;;;11.40;99.90;;;;;;5069728;28;20056;-64
2023/04/09 09:49:03;;;;;;;30.17;19.30;;;11.50;99.90;;;;;;5068201;28;20506;-63
2023/04/09 09:51:32;;;;;;;29.38;18.85;;;11.80;99.90;;;;;;5069825;28;20117;-64
2023/04/09 09:53:59;;;;;;;30.58;20.15;;;11.90;99.90;;;;;;5067571;28;20052;-64
2023/04/09 09:56:32;;;;;;;30.90;19.13;;;12.10;99.90;;;;;;5069876;28;20056;-63
2023/04/09 09:59:07;;;;;;;28.50;19.30;;;12.30;99.90;;;;;;5067698;28;20657;-63
2023/04/09 10:01:36;;;;;;;30.13;19.02;;;12.20;99.90;;;;;;5068449;28;20044;-62
2023/04/09 10:04:06;;;;;;;30.30;19.50;;;12.30;99.90;;;;;;5069493;28;20057;-61
2023/04/09 10:06:34;;;;;;;30.33;19.95;;;12.20;99.90;;;;;;5070348;28;20048;-63
2023/04/09 10:09:05;;;;;;;28.67;18.27;;;12.20;99.90;;;;;;5071266;28;20037;-63
2023/04/09 10:11:35;;;;;;;28.02;19.63;;;12.40;99.90;;;;;;5067965;28;20079;-63
2023/04/09 10:14:02;;;;;;;30.25;20.42;;;12.50;99.90;;;;;;5064763;28;20052;-63
2023/04/09 10:16:29;;;;;;;30.88;19.40;;;12.80;99.90;;;;;;5069473;28;20106;-63
2023/04/09 10:18:58;;;;;;;28.65;18.92;;;12.90;99.90;;;;;;5069584;28;20102;-63
2023/04/09 10:21:35;;;;;;;26.25;18.60;;;13.30;99.90;;;;;;5068976;28;20090;-64
2023/04/09 10:24:04;;;;;;;31.63;18.60;;;13.80;99.90;;;;;;5070561;28;20048;-63
2023/04/09 10:26:34;;;;;;;25.63;17.80;;;14.00;99.90;;;;;;5067394;28;20056;-63
2023/04/09 10:29:06;;;;;;;31.02;19.70;;;14.10;99.90;;;;;;5068812;28;20107;-64
2023/04/09 10:31:52;;;;;;;29.30;19.27;;;14.00;99.90;;;;;;5068804;28;20567;-63
2023/04/09 10:34:23;;;;;;;28.45;19.85;;;13.90;99.90;;;;;;5069089;28;20071;-63
2023/04/09 10:36:53;;;;;;;27.80;19.05;;;14.00;99.90;;;;;;5070020;28;20045;-65
2023/04/09 10:39:20;;;;;;;25.57;17.90;;;14.40;99.90;;;;;;5100633;28;20163;-63
2023/04/09 10:41:48;;;;;;;30.20;19.38;;;14.80;99.90;;;;;;5068508;28;20052;-63
2023/04/09 10:44:22;;;;;;;28.25;19.13;;;15.10;99.90;;;;;;5067747;28;20052;-62
2023/04/09 10:46:50;;;;;;;29.10;19.38;;;15.40;99.90;;;;;;5069431;28;20059;-62
2023/04/09 10:49:18;;;;;;;25.08;18.48;;;15.70;99.90;;;;;;5067865;28;20085;-64
2023/04/09 10:52:02;;;;;;;25.52;18.63;;;15.90;99.90;;;;;;5070886;28;20106;-64
2023/04/09 10:54:44;;;;;;;26.92;18.52;;;15.90;99.90;;;;;;5068155;28;20110;-63
2023/04/09 10:57:19;;;;;;;24.70;17.55;;;16.20;99.90;;;;;;5069993;28;20048;-62
2023/04/09 10:59:48;;;;;;;25.20;17.88;;;16.40;99.90;;;;;;5099420;28;20052;-64
2023/04/09 11:02:54;;;;;;;24.33;17.77;;;16.40;99.90;;;;;;5068363;28;20114;-64
2023/04/09 11:05:36;;;;;;;24.45;18.20;;;16.50;99.90;;;;;;5072818;28;20048;-64
2023/04/09 11:08:08;;;;;;;25.58;18.67;;;16.60;99.90;;;;;;5071347;28;20041;-64
2023/04/09 11:10:35;;;;;;;23.63;16.73;;;16.60;99.90;;;;;;5070744;28;20098;-65
2023/04/09 11:13:03;;;;;;;22.83;16.17;;;16.40;99.90;;;;;;5071050;28;20052;-64
2023/04/09 11:15:30;;;;;;;23.83;17.05;;;16.70;99.90;;;;;;5071745;28;20056;-63
2023/04/09 11:17:57;;;;;;;24.77;17.73;;;17.10;99.90;;;;;;5071856;28;20098;-64
2023/04/09 11:20:26;;;;;;;25.17;17.85;;;16.90;99.90;;;;;;5073753;28;20044;-64
2023/04/09 11:22:54;;;;;;;25.10;18.08;;;17.20;99.90;;;;;;5070429;28;20504;-64
2023/04/09 11:25:25;;;;;;;25.20;17.92;;;17.50;99.90;;;;;;5071645;28;20127;-64
2023/04/09 11:27:52;;;;;;;22.80;16.65;;;17.70;99.90;;;;;;5072383;28;20048;-64
2023/04/09 11:30:20;;;;;;;24.30;17.10;;;18.20;99.90;;;;;;5071012;28;20101;-63
2023/04/09 11:32:48;;;;;;;22.77;16.88;;;18.80;99.90;;;;;;5072120;28;20053;-63
2023/04/09 11:35:16;;;;;;;21.10;15.90;;;19.80;98.30;;;;;;5072486;28;20052;-64
2023/04/09 11:37:45;;;;;;;22.52;16.77;;;20.70;98.80;;;;;;5072399;28;20041;-66
2023/04/09 11:40:16;;;;;;;24.42;17.02;;;21.00;97.40;;;;;;5067521;28;20564;-64
2023/04/09 11:42:47;;;;;;;21.20;16.95;;;21.30;95.70;;;;;;5073871;28;20050;-65
2023/04/09 11:45:15;;;;;;;23.00;18.00;;;21.80;94.70;;;;;;5070482;28;20103;-64
2023/04/09 11:47:43;;;;;;;21.80;16.15;;;22.00;93.90;;;;;;5071412;28;20048;-64
2023/04/09 11:50:12;;;;;;;20.55;16.67;;;22.50;93.00;;;;;;5070250;28;20044;-65
2023/04/09 11:52:40;;;;;;;20.13;16.27;;;23.10;92.50;;;;;;5070150;28;20096;-65
2023/04/09 11:55:08;;;;;;;17.40;13.98;;;23.10;91.70;;;;;;5071696;28;20103;-65
2023/04/09 11:57:43;;;;;;;21.05;16.33;;;22.80;88.30;;;;;;5071863;28;20045;-64
2023/04/09 12:00:13;;;;;;;20.63;15.93;;;23.00;89.80;;;;;;5070415;28;20054;-65
2023/04/09 12:02:46;;;;;;;18.67;15.18;;;23.10;88.10;;;;;;5073241;28;20512;-65
2023/04/09 12:05:21;;;;;;;21.55;17.13;;;23.90;88.20;;;;;;5068746;28;20578;-64
2023/04/09 12:07:48;;;;;;;18.67;15.23;;;23.80;84.80;;;;;;5070772;28;20051;-65
2023/04/09 12:10:15;;;;;;;17.30;14.55;;;24.10;84.70;;;;;;5072287;28;20097;-65
2023/04/09 12:12:43;;;;;;;20.40;16.05;;;23.70;82.60;;;;;;5071867;28;20052;-64
2023/04/09 12:15:21;;;;;;;19.15;15.75;;;23.10;83.70;;;;;;5070858;28;20386;-65
2023/04/09 12:17:50;;;;;;;17.23;14.95;;;22.90;83.30;;;;;;5071796;28;20131;-64
2023/04/09 12:20:31;;;;;;;18.77;15.52;;;23.30;85.40;;;;;;5071885;28;20045;-64
2023/04/09 12:23:00;;;;;;;19.05;15.55;;;23.50;83.30;;;;;;5070763;28;20102;-65
2023/04/09 12:25:26;;;;;;;15.85;13.93;;;23.50;84.30;;;;;;5071212;28;20044;-66
2023/04/09 12:27:54;;;;;;;16.67;12.77;;;23.30;82.90;;;;;;5069721;28;20056;-65
2023/04/09 12:30:23;;;;;;;16.25;13.88;;;23.80;83.70;;;;;;5071299;28;20040;-64
2023/04/09 12:32:50;;;;;;;16.75;14.07;;;24.10;80.80;;;;;;5067963;28;20114;-64
2023/04/09 12:35:17;;;;;;;18.23;13.88;;;24.20;81.10;;;;;;5072341;28;20060;-64
2023/04/09 12:37:44;;;;;;;17.90;13.85;;;24.10;80.90;;;;;;5070608;28;20109;-64
2023/04/09 12:40:12;;;;;;;15.90;13.43;;;24.40;80.90;;;;;;5068947;28;20051;-64